sensor_id;sensor_type;location;lat;lon;timestamp;pressure;altitude;pressure_sealevel;temperature;humidity
51829;BME280;37881;48.024;8.774;2023-07-29T00:00:44;93679.84;;;15.45;100.00
51829;BME280;37881;48.024;8.774;2023-07-29T00:03:11;93681.09;;;15.44;100.00
51829;BME280;37881;48.024;8.774;2023-07-29T00:05:38;93674.31;;;15.45;100.00
51829;BME280;37881;48.024;8.774;2023-07-29T00:08:05;93674.50;;;15.50;100.00
51829;BME280;37881;48.024;8.774;2023-07-29T00:10:34;93677.84;;;15.45;100.00
51829;BME280;37881;48.024;8.774;2023-07-29T00:13:03;93676.50;;;15.50;100.00
51829;BME280;37881;48.024;8.774;2023-07-29T00:15:30;93675.78;;;15.58;100.00
51829;BME280;37881;48.024;8.774;2023-07-29T00:17:57;93669.91;;;15.56;100.00
51829;BME280;37881;48.024;8.774;2023-07-29T00:20:24;93663.50;;;15.60;100.00
51829;BME280;37881;48.024;8.774;2023-07-29T00:22:51;93665.34;;;15.63;100.00
51829;BME280;37881;48.024;8.774;2023-07-29T00:25:21;93663.03;;;15.61;100.00
51829;BME280;37881;48.024;8.774;2023-07-29T00:27:48;93666.56;;;15.62;100.00
51829;BME280;37881;48.024;8.774;2023-07-29T00:30:15;93658.59;;;15.64;100.00
51829;BME280;37881;48.024;8.774;2023-07-29T00:32:41;93663.34;;;15.63;100.00
51829;BME280;37881;48.024;8.774;2023-07-29T00:35:08;93669.72;;;15.51;100.00
51829;BME280;37881;48.024;8.774;2023-07-29T00:37:35;93662.94;;;15.43;100.00
51829;BME280;37881;48.024;8.774;2023-07-29T00:40:14;93663.94;;;15.27;100.00
51829;BME280;37881;48.024;8.774;2023-07-29T00:42:42;93667.31;;;15.31;100.00
51829;BME280;37881;48.024;8.774;2023-07-29T00:45:09;93662.13;;;15.33;100.00
51829;BME280;37881;48.024;8.774;2023-07-29T00:47:37;93668.59;;;15.39;100.00
51829;BME280;37881;48.024;8.774;2023-07-29T00:50:06;93669.50;;;15.36;100.00
51829;BME280;37881;48.024;8.774;2023-07-29T00:52:33;93664.19;;;15.42;100.00
51829;BME280;37881;48.024;8.774;2023-07-29T00:55:00;93661.78;;;15.31;100.00
51829;BME280;37881;48.024;8.774;2023-07-29T00:57:29;93658.72;;;15.29;100.00
51829;BME280;37881;48.024;8.774;2023-07-29T00:59:56;93653.34;;;15.25;100.00
51829;BME280;37881;48.024;8.774;2023-07-29T01:02:23;93651.66;;;15.28;100.00
51829;BME280;37881;48.024;8.774;2023-07-29T01:04:54;93655.91;;;15.20;100.00
51829;BME280;37881;48.024;8.774;2023-07-29T01:08:20;93657.00;;;15.22;100.00
51829;BME280;37881;48.024;8.774;2023-07-29T01:10:34;93664.78;;;15.14;100.00
51829;BME280;37881;48.024;8.774;2023-07-29T01:13:08;93662.59;;;15.09;100.00
51829;BME280;37881;48.024;8.774;2023-07-29T01:15:45;93656.94;;;14.91;100.00
51829;BME280;37881;48.024;8.774;2023-07-29T01:18:22;93658.81;;;14.94;100.00
51829;BME280;37881;48.024;8.774;2023-07-29T01:20:53;93651.81;;;15.02;100.00
51829;BME280;37881;48.024;8.774;2023-07-29T01:23:29;93647.84;;;15.03;100.00
51829;BME280;37881;48.024;8.774;2023-07-29T01:25:56;93642.75;;;15.02;100.00
51829;BME280;37881;48.024;8.774;2023-07-29T01:28:23;93641.00;;;14.95;100.00
51829;BME280;37881;48.024;8.774;2023-07-29T01:30:53;93637.59;;;14.91;100.00
51829;BME280;37881;48.024;8.774;2023-07-29T01:33:26;93643.06;;;14.82;100.00
51829;BME280;37881;48.024;8.774;2023-07-29T01:35:57;93647.38;;;14.83;100.00
51829;BME280;37881;48.024;8.774;2023-07-29T01:38:33;93641.84;;;14.83;100.00
51829;BME280;37881;48.024;8.774;2023-07-29T01:41:02;93637.09;;;14.83;100.00
51829;BME280;37881;48.024;8.774;2023-07-29T01:43:30;93639.06;;;14.83;100.00
51829;BME280;37881;48.024;8.774;2023-07-29T01:45:57;93637.22;;;14.80;100.00
51829;BME280;37881;48.024;8.774;2023-07-29T01:48:24;93643.72;;;14.64;100.00
51829;BME280;37881;48.024;8.774;2023-07-29T01:50:51;93639.88;;;14.48;100.00
51829;BME280;37881;48.024;8.774;2023-07-29T01:53:18;93640.78;;;14.45;100.00
51829;BME280;37881;48.024;8.774;2023-07-29T01:55:44;93633.38;;;14.42;100.00
51829;BME280;37881;48.024;8.774;2023-07-29T01:58:11;93635.13;;;14.49;100.00
51829;BME280;37881;48.024;8.774;2023-07-29T02:00:38;93636.34;;;14.48;100.00
51829;BME280;37881;48.024;8.774;2023-07-29T02:03:05;93628.94;;;14.57;100.00
51829;BME280;37881;48.024;8.774;2023-07-29T02:05:32;93630.69;;;14.51;100.00
51829;BME280;37881;48.024;8.774;2023-07-29T02:07:59;93633.56;;;14.48;100.00
51829;BME280;37881;48.024;8.774;2023-07-29T02:10:25;93633.13;;;14.49;100.00
51829;BME280;37881;48.024;8.774;2023-07-29T02:12:52;93642.06;;;14.53;100.00
51829;BME280;37881;48.024;8.774;2023-07-29T02:15:19;93637.31;;;14.54;100.00
51829;BME280;37881;48.024;8.774;2023-07-29T02:17:46;93634.53;;;14.54;100.00
51829;BME280;37881;48.024;8.774;2023-07-29T02:20:12;93628.59;;;14.55;100.00
51829;BME280;37881;48.024;8.774;2023-07-29T02:22:39;93625.81;;;14.55;100.00
51829;BME280;37881;48.024;8.774;2023-07-29T02:25:06;93625.06;;;14.55;100.00
51829;BME280;37881;48.024;8.774;2023-07-29T02:27:33;93625.41;;;14.57;100.00
51829;BME280;37881;48.024;8.774;2023-07-29T02:30:00;93623.50;;;14.54;100.00
51829;BME280;37881;48.024;8.774;2023-07-29T02:32:27;93622.41;;;14.51;100.00
51829;BME280;37881;48.024;8.774;2023-07-29T02:34:54;93628.06;;;14.48;100.00
51829;BME280;37881;48.024;8.774;2023-07-29T02:37:21;93633.47;;;14.51;100.00
51829;BME280;37881;48.024;8.774;2023-07-29T02:39:48;93636.94;;;14.65;100.00
51829;BME280;37881;48.024;8.774;2023-07-29T02:42:15;93639.16;;;14.70;100.00
51829;BME280;37881;48.024;8.774;2023-07-29T02:44:41;93630.63;;;14.77;100.00
51829;BME280;37881;48.024;8.774;2023-07-29T02:47:08;93633.56;;;14.83;100.00
51829;BME280;37881;48.024;8.774;2023-07-29T02:49:35;93635.34;;;14.76;100.00
51829;BME280;37881;48.024;8.774;2023-07-29T02:52:02;93634.97;;;14.65;100.00
51829;BME280;37881;48.024;8.774;2023-07-29T02:54:28;93631.44;;;14.65;100.00
51829;BME280;37881;48.024;8.774;2023-07-29T02:56:55;93630.66;;;14.64;100.00
51829;BME280;37881;48.024;8.774;2023-07-29T02:59:22;93629.06;;;14.76;100.00
51829;BME280;37881;48.024;8.774;2023-07-29T03:01:49;93631.59;;;14.83;100.00
51829;BME280;37881;48.024;8.774;2023-07-29T03:04:15;93621.34;;;14.93;100.00
51829;BME280;37881;48.024;8.774;2023-07-29T03:06:42;93618.78;;;14.98;100.00
51829;BME280;37881;48.024;8.774;2023-07-29T03:09:09;93620.66;;;15.02;100.00
51829;BME280;37881;48.024;8.774;2023-07-29T03:11:36;93620.56;;;14.92;100.00
51829;BME280;37881;48.024;8.774;2023-07-29T03:14:03;93617.56;;;15.00;100.00
51829;BME280;37881;48.024;8.774;2023-07-29T03:16:29;93616.41;;;14.88;100.00
51829;BME280;37881;48.024;8.774;2023-07-29T03:18:56;93610.88;;;14.88;100.00
51829;BME280;37881;48.024;8.774;2023-07-29T03:21:24;93618.56;;;14.93;100.00
51829;BME280;37881;48.024;8.774;2023-07-29T03:23:51;93620.00;;;14.97;100.00
51829;BME280;37881;48.024;8.774;2023-07-29T03:26:18;93612.66;;;15.04;100.00
51829;BME280;37881;48.024;8.774;2023-07-29T03:28:45;93616.72;;;15.12;100.00
51829;BME280;37881;48.024;8.774;2023-07-29T03:31:12;93617.03;;;15.14;100.00
51829;BME280;37881;48.024;8.774;2023-07-29T03:33:39;93606.00;;;14.92;100.00
51829;BME280;37881;48.024;8.774;2023-07-29T03:36:06;93611.91;;;14.81;100.00
51829;BME280;37881;48.024;8.774;2023-07-29T03:38:32;93611.91;;;14.81;100.00
51829;BME280;37881;48.024;8.774;2023-07-29T03:41:07;93611.66;;;14.88;100.00
51829;BME280;37881;48.024;8.774;2023-07-29T03:43:35;93611.72;;;14.97;100.00
51829;BME280;37881;48.024;8.774;2023-07-29T03:46:01;93607.91;;;15.04;100.00
51829;BME280;37881;48.024;8.774;2023-07-29T03:48:28;93599.75;;;15.01;100.00
51829;BME280;37881;48.024;8.774;2023-07-29T03:50:55;93594.19;;;14.91;100.00
51829;BME280;37881;48.024;8.774;2023-07-29T03:53:22;93598.97;;;15.00;100.00
51829;BME280;37881;48.024;8.774;2023-07-29T03:55:48;93590.94;;;14.93;100.00
51829;BME280;37881;48.024;8.774;2023-07-29T03:58:16;93593.72;;;14.93;100.00
51829;BME280;37881;48.024;8.774;2023-07-29T04:00:43;93597.06;;;14.88;100.00
51829;BME280;37881;48.024;8.774;2023-07-29T04:03:09;93594.75;;;14.86;100.00
51829;BME280;37881;48.024;8.774;2023-07-29T04:05:36;93608.00;;;14.91;100.00
51829;BME280;37881;48.024;8.774;2023-07-29T04:08:03;93602.19;;;14.98;100.00
51829;BME280;37881;48.024;8.774;2023-07-29T04:10:30;93605.75;;;14.99;100.00
51829;BME280;37881;48.024;8.774;2023-07-29T04:12:58;93604.41;;;14.82;100.00
51829;BME280;37881;48.024;8.774;2023-07-29T04:15:25;93609.84;;;14.72;100.00
51829;BME280;37881;48.024;8.774;2023-07-29T04:17:52;93610.31;;;14.71;100.00
51829;BME280;37881;48.024;8.774;2023-07-29T04:20:18;93618.22;;;14.82;100.00
51829;BME280;37881;48.024;8.774;2023-07-29T04:22:45;93614.91;;;14.96;100.00
51829;BME280;37881;48.024;8.774;2023-07-29T04:25:12;93615.50;;;14.91;100.00
51829;BME280;37881;48.024;8.774;2023-07-29T04:27:39;93623.91;;;15.09;100.00
51829;BME280;37881;48.024;8.774;2023-07-29T04:30:06;93605.84;;;15.17;100.00
51829;BME280;37881;48.024;8.774;2023-07-29T04:32:35;93617.84;;;15.24;100.00
51829;BME280;37881;48.024;8.774;2023-07-29T04:35:02;93619.88;;;15.32;100.00
51829;BME280;37881;48.024;8.774;2023-07-29T04:37:28;93618.56;;;15.46;100.00
51829;BME280;37881;48.024;8.774;2023-07-29T04:39:55;93620.97;;;15.35;100.00
51829;BME280;37881;48.024;8.774;2023-07-29T04:42:22;93619.94;;;15.51;100.00
51829;BME280;37881;48.024;8.774;2023-07-29T04:44:49;93615.94;;;15.43;100.00
51829;BME280;37881;48.024;8.774;2023-07-29T04:47:15;93621.00;;;15.44;100.00
51829;BME280;37881;48.024;8.774;2023-07-29T04:49:42;93616.69;;;15.43;100.00
51829;BME280;37881;48.024;8.774;2023-07-29T04:52:09;93611.78;;;15.38;100.00
51829;BME280;37881;48.024;8.774;2023-07-29T04:54:35;93613.03;;;15.46;100.00
51829;BME280;37881;48.024;8.774;2023-07-29T04:57:02;93611.16;;;15.74;100.00
51829;BME280;37881;48.024;8.774;2023-07-29T04:59:29;93610.44;;;16.02;100.00
51829;BME280;37881;48.024;8.774;2023-07-29T05:01:56;93608.50;;;16.21;100.00
51829;BME280;37881;48.024;8.774;2023-07-29T05:04:23;93609.91;;;16.34;100.00
51829;BME280;37881;48.024;8.774;2023-07-29T05:06:50;93609.59;;;16.42;100.00
51829;BME280;37881;48.024;8.774;2023-07-29T05:09:18;93610.50;;;16.48;100.00
51829;BME280;37881;48.024;8.774;2023-07-29T05:11:46;93602.06;;;16.61;100.00
51829;BME280;37881;48.024;8.774;2023-07-29T05:14:14;93601.72;;;16.68;100.00
51829;BME280;37881;48.024;8.774;2023-07-29T05:16:42;93613.75;;;16.55;100.00
51829;BME280;37881;48.024;8.774;2023-07-29T05:19:09;93621.75;;;16.53;100.00
51829;BME280;37881;48.024;8.774;2023-07-29T05:21:37;93629.75;;;16.42;100.00
51829;BME280;37881;48.024;8.774;2023-07-29T05:24:04;93626.22;;;16.51;100.00
51829;BME280;37881;48.024;8.774;2023-07-29T05:26:31;93626.22;;;16.51;100.00
51829;BME280;37881;48.024;8.774;2023-07-29T05:28:58;93630.84;;;16.91;100.00
51829;BME280;37881;48.024;8.774;2023-07-29T05:31:24;93625.28;;;17.00;100.00
51829;BME280;37881;48.024;8.774;2023-07-29T05:33:51;93625.91;;;16.86;100.00
51829;BME280;37881;48.024;8.774;2023-07-29T05:36:18;93618.06;;;16.93;100.00
51829;BME280;37881;48.024;8.774;2023-07-29T05:38:45;93611.13;;;17.07;100.00
51829;BME280;37881;48.024;8.774;2023-07-29T05:41:11;93619.84;;;17.24;100.00
51829;BME280;37881;48.024;8.774;2023-07-29T05:43:38;93608.28;;;17.35;100.00
51829;BME280;37881;48.024;8.774;2023-07-29T05:46:05;93615.53;;;17.75;100.00
51829;BME280;37881;48.024;8.774;2023-07-29T05:48:32;93602.22;;;17.88;100.00
51829;BME280;37881;48.024;8.774;2023-07-29T05:50:59;93596.78;;;17.94;100.00
51829;BME280;37881;48.024;8.774;2023-07-29T05:53:26;93585.09;;;19.81;100.00
51829;BME280;37881;48.024;8.774;2023-07-29T05:55:52;93565.22;;;21.17;100.00
51829;BME280;37881;48.024;8.774;2023-07-29T05:58:19;93569.56;;;20.98;100.00
51829;BME280;37881;48.024;8.774;2023-07-29T06:00:46;93567.34;;;19.64;100.00
51829;BME280;37881;48.024;8.774;2023-07-29T06:03:13;93572.72;;;18.78;100.00
51829;BME280;37881;48.024;8.774;2023-07-29T06:05:39;93561.78;;;21.60;100.00
51829;BME280;37881;48.024;8.774;2023-07-29T06:08:06;93555.69;;;23.64;100.00
51829;BME280;37881;48.024;8.774;2023-07-29T06:10:35;93551.88;;;23.39;100.00
51829;BME280;37881;48.024;8.774;2023-07-29T06:13:02;93557.56;;;22.19;100.00
51829;BME280;37881;48.024;8.774;2023-07-29T06:15:28;93552.88;;;23.75;100.00
51829;BME280;37881;48.024;8.774;2023-07-29T06:17:55;93566.13;;;23.58;100.00
51829;BME280;37881;48.024;8.774;2023-07-29T06:20:23;93569.16;;;24.10;100.00
51829;BME280;37881;48.024;8.774;2023-07-29T06:22:50;93580.84;;;24.31;100.00
51829;BME280;37881;48.024;8.774;2023-07-29T06:25:16;93576.16;;;25.57;100.00
51829;BME280;37881;48.024;8.774;2023-07-29T06:27:43;93572.81;;;24.75;100.00
51829;BME280;37881;48.024;8.774;2023-07-29T06:30:10;93569.94;;;23.88;100.00
51829;BME280;37881;48.024;8.774;2023-07-29T06:32:37;93564.44;;;22.23;100.00
51829;BME280;37881;48.024;8.774;2023-07-29T06:35:04;93588.72;;;20.64;100.00
51829;BME280;37881;48.024;8.774;2023-07-29T06:37:31;93581.41;;;20.46;100.00
51829;BME280;37881;48.024;8.774;2023-07-29T06:39:59;93583.28;;;20.54;100.00
51829;BME280;37881;48.024;8.774;2023-07-29T06:42:26;93593.25;;;20.82;100.00
51829;BME280;37881;48.024;8.774;2023-07-29T06:44:53;93588.22;;;21.38;100.00
51829;BME280;37881;48.024;8.774;2023-07-29T06:47:20;93584.41;;;21.09;100.00
51829;BME280;37881;48.024;8.774;2023-07-29T06:49:46;93575.50;;;21.05;100.00
51829;BME280;37881;48.024;8.774;2023-07-29T06:52:13;93573.72;;;20.82;100.00
51829;BME280;37881;48.024;8.774;2023-07-29T06:54:40;93566.78;;;20.71;100.00
51829;BME280;37881;48.024;8.774;2023-07-29T06:57:07;93577.50;;;20.79;100.00
51829;BME280;37881;48.024;8.774;2023-07-29T06:59:34;93561.03;;;21.33;100.00
51829;BME280;37881;48.024;8.774;2023-07-29T07:02:01;93557.13;;;22.97;100.00
51829;BME280;37881;48.024;8.774;2023-07-29T07:04:28;93558.19;;;23.11;100.00
51829;BME280;37881;48.024;8.774;2023-07-29T07:06:55;93559.88;;;22.74;100.00
51829;BME280;37881;48.024;8.774;2023-07-29T07:09:22;93564.25;;;22.92;100.00
51829;BME280;37881;48.024;8.774;2023-07-29T07:11:49;93563.84;;;22.02;100.00
51829;BME280;37881;48.024;8.774;2023-07-29T07:14:16;93574.00;;;21.36;100.00
51829;BME280;37881;48.024;8.774;2023-07-29T07:16:42;93567.91;;;21.38;100.00
51829;BME280;37881;48.024;8.774;2023-07-29T07:19:09;93568.56;;;21.53;100.00
51829;BME280;37881;48.024;8.774;2023-07-29T07:21:36;93567.03;;;21.52;100.00
51829;BME280;37881;48.024;8.774;2023-07-29T07:24:03;93556.34;;;22.25;100.00
51829;BME280;37881;48.024;8.774;2023-07-29T07:26:30;93557.03;;;22.14;100.00
51829;BME280;37881;48.024;8.774;2023-07-29T07:28:56;93554.28;;;22.74;100.00
51829;BME280;37881;48.024;8.774;2023-07-29T07:31:23;93556.47;;;22.48;100.00
51829;BME280;37881;48.024;8.774;2023-07-29T07:33:50;93563.06;;;22.02;100.00
51829;BME280;37881;48.024;8.774;2023-07-29T07:36:16;93564.66;;;22.63;100.00
51829;BME280;37881;48.024;8.774;2023-07-29T07:38:43;93555.88;;;22.32;100.00
51829;BME280;37881;48.024;8.774;2023-07-29T07:41:10;93557.41;;;21.90;100.00
51829;BME280;37881;48.024;8.774;2023-07-29T07:43:37;93576.22;;;21.58;100.00
51829;BME280;37881;48.024;8.774;2023-07-29T07:46:04;93583.53;;;20.98;100.00
51829;BME280;37881;48.024;8.774;2023-07-29T07:48:31;93587.72;;;20.87;100.00
51829;BME280;37881;48.024;8.774;2023-07-29T07:50:59;93587.97;;;20.43;100.00
51829;BME280;37881;48.024;8.774;2023-07-29T07:53:26;93605.59;;;20.54;100.00
51829;BME280;37881;48.024;8.774;2023-07-29T07:55:53;93616.69;;;20.69;100.00
51829;BME280;37881;48.024;8.774;2023-07-29T07:58:20;93601.75;;;20.72;100.00
51829;BME280;37881;48.024;8.774;2023-07-29T08:00:46;93596.75;;;20.77;100.00
51829;BME280;37881;48.024;8.774;2023-07-29T08:03:13;93599.78;;;20.58;100.00
51829;BME280;37881;48.024;8.774;2023-07-29T08:05:40;93606.22;;;20.64;100.00
51829;BME280;37881;48.024;8.774;2023-07-29T08:08:07;93609.81;;;20.50;100.00
51829;BME280;37881;48.024;8.774;2023-07-29T08:10:34;93614.75;;;20.20;100.00
51829;BME280;37881;48.024;8.774;2023-07-29T08:13:00;93605.94;;;20.83;100.00
51829;BME280;37881;48.024;8.774;2023-07-29T08:15:27;93596.47;;;21.85;100.00
51829;BME280;37881;48.024;8.774;2023-07-29T08:17:54;93597.28;;;25.33;100.00
51829;BME280;37881;48.024;8.774;2023-07-29T08:20:21;93605.19;;;25.35;100.00
51829;BME280;37881;48.024;8.774;2023-07-29T08:22:47;93594.91;;;27.26;96.70
51829;BME280;37881;48.024;8.774;2023-07-29T08:25:14;93597.19;;;24.16;100.00
51829;BME280;37881;48.024;8.774;2023-07-29T08:27:41;93587.84;;;27.90;93.53
51829;BME280;37881;48.024;8.774;2023-07-29T08:30:08;93585.72;;;27.77;86.17
51829;BME280;37881;48.024;8.774;2023-07-29T08:32:35;93597.69;;;28.42;89.22
51829;BME280;37881;48.024;8.774;2023-07-29T08:35:02;93594.16;;;28.68;83.83
51829;BME280;37881;48.024;8.774;2023-07-29T08:37:29;93603.34;;;30.46;74.90
51829;BME280;37881;48.024;8.774;2023-07-29T08:39:57;93587.75;;;31.78;69.95
51829;BME280;37881;48.024;8.774;2023-07-29T08:42:29;93588.59;;;32.40;64.71
51829;BME280;37881;48.024;8.774;2023-07-29T08:45:01;93581.56;;;31.43;68.29
51829;BME280;37881;48.024;8.774;2023-07-29T08:47:32;93587.25;;;33.43;59.30
51829;BME280;37881;48.024;8.774;2023-07-29T08:50:01;93586.00;;;31.59;66.30
51829;BME280;37881;48.024;8.774;2023-07-29T08:52:29;93576.84;;;32.67;58.21
51829;BME280;37881;48.024;8.774;2023-07-29T08:54:58;93571.44;;;31.19;64.85
51829;BME280;37881;48.024;8.774;2023-07-29T08:57:25;93578.22;;;30.01;74.35
51829;BME280;37881;48.024;8.774;2023-07-29T08:59:53;93569.47;;;31.42;63.33
51829;BME280;37881;48.024;8.774;2023-07-29T09:02:21;93573.59;;;30.90;66.20
51829;BME280;37881;48.024;8.774;2023-07-29T09:04:48;93580.72;;;29.70;74.91
51829;BME280;37881;48.024;8.774;2023-07-29T09:07:15;93577.41;;;29.24;75.76
51829;BME280;37881;48.024;8.774;2023-07-29T09:09:42;93569.56;;;30.27;70.64
51829;BME280;37881;48.024;8.774;2023-07-29T09:12:09;93572.78;;;31.18;67.40
51829;BME280;37881;48.024;8.774;2023-07-29T09:14:37;93570.34;;;30.57;67.81
51829;BME280;37881;48.024;8.774;2023-07-29T09:17:07;93573.38;;;31.24;64.74
51829;BME280;37881;48.024;8.774;2023-07-29T09:19:35;93567.16;;;29.07;70.53
51829;BME280;37881;48.024;8.774;2023-07-29T09:22:02;93567.09;;;27.36;79.15
51829;BME280;37881;48.024;8.774;2023-07-29T09:24:29;93581.34;;;25.47;94.91
51829;BME280;37881;48.024;8.774;2023-07-29T09:26:59;93586.19;;;25.52;97.72
51829;BME280;37881;48.024;8.774;2023-07-29T09:29:28;93572.66;;;26.36;90.70
51829;BME280;37881;48.024;8.774;2023-07-29T09:32:21;93569.91;;;27.36;87.43
51829;BME280;37881;48.024;8.774;2023-07-29T09:34:48;93571.41;;;26.56;88.85
51829;BME280;37881;48.024;8.774;2023-07-29T09:37:25;93571.50;;;26.75;88.38
51829;BME280;37881;48.024;8.774;2023-07-29T09:39:52;93568.31;;;25.49;97.01
51829;BME280;37881;48.024;8.774;2023-07-29T09:42:20;93571.47;;;24.87;100.00
51829;BME280;37881;48.024;8.774;2023-07-29T09:44:49;93568.97;;;24.72;98.26
51829;BME280;37881;48.024;8.774;2023-07-29T09:47:24;93572.72;;;26.79;89.78
51829;BME280;37881;48.024;8.774;2023-07-29T09:49:52;93572.75;;;27.87;75.97
51829;BME280;37881;48.024;8.774;2023-07-29T09:52:22;93559.91;;;27.54;69.35
51829;BME280;37881;48.024;8.774;2023-07-29T09:54:49;93569.03;;;27.28;74.47
51829;BME280;37881;48.024;8.774;2023-07-29T09:57:17;93562.47;;;26.33;77.64
51829;BME280;37881;48.024;8.774;2023-07-29T09:59:54;93564.34;;;26.00;80.04
51829;BME280;37881;48.024;8.774;2023-07-29T10:02:22;93573.13;;;26.40;75.50
51829;BME280;37881;48.024;8.774;2023-07-29T10:04:49;93567.97;;;26.44;73.30
51829;BME280;37881;48.024;8.774;2023-07-29T10:07:17;93578.00;;;25.84;75.72
51829;BME280;37881;48.024;8.774;2023-07-29T10:09:45;93570.00;;;26.24;77.15
51829;BME280;37881;48.024;8.774;2023-07-29T10:12:13;93574.25;;;26.06;77.91
51829;BME280;37881;48.024;8.774;2023-07-29T10:14:43;93576.38;;;25.64;78.00
51829;BME280;37881;48.024;8.774;2023-07-29T10:17:11;93573.53;;;26.00;79.58
51829;BME280;37881;48.024;8.774;2023-07-29T10:19:37;93556.44;;;28.93;64.85
51829;BME280;37881;48.024;8.774;2023-07-29T10:22:06;93563.72;;;28.48;64.39
51829;BME280;37881;48.024;8.774;2023-07-29T10:24:33;93562.97;;;29.14;61.32
51829;BME280;37881;48.024;8.774;2023-07-29T10:27:01;93584.31;;;30.55;57.69
51829;BME280;37881;48.024;8.774;2023-07-29T10:29:36;93569.38;;;30.04;53.97
51829;BME280;37881;48.024;8.774;2023-07-29T10:32:05;93568.06;;;30.05;53.54
51829;BME280;37881;48.024;8.774;2023-07-29T10:34:34;93567.00;;;28.79;56.77
51829;BME280;37881;48.024;8.774;2023-07-29T10:37:02;93573.47;;;28.20;60.34
51829;BME280;37881;48.024;8.774;2023-07-29T10:39:37;93567.22;;;30.39;55.06
51829;BME280;37881;48.024;8.774;2023-07-29T10:42:06;93558.78;;;30.47;52.55
51829;BME280;37881;48.024;8.774;2023-07-29T10:47:15;93564.56;;;29.23;53.19
51829;BME280;37881;48.024;8.774;2023-07-29T10:49:43;93565.47;;;29.18;54.59
51829;BME280;37881;48.024;8.774;2023-07-29T10:52:17;93567.03;;;29.74;52.80
51829;BME280;37881;48.024;8.774;2023-07-29T10:54:53;93571.31;;;29.54;51.91
51829;BME280;37881;48.024;8.774;2023-07-29T10:57:35;93554.59;;;29.43;52.26
51829;BME280;37881;48.024;8.774;2023-07-29T11:00:04;93552.75;;;30.01;51.89
51829;BME280;37881;48.024;8.774;2023-07-29T11:02:35;93544.28;;;28.98;50.91
51829;BME280;37881;48.024;8.774;2023-07-29T11:05:16;93542.44;;;28.34;53.71
51829;BME280;37881;48.024;8.774;2023-07-29T11:07:47;93547.72;;;28.11;52.67
51829;BME280;37881;48.024;8.774;2023-07-29T11:10:15;93550.91;;;28.47;53.83
51829;BME280;37881;48.024;8.774;2023-07-29T11:12:51;93542.66;;;29.37;50.91
51829;BME280;37881;48.024;8.774;2023-07-29T11:15:28;93548.44;;;28.70;52.92
51829;BME280;37881;48.024;8.774;2023-07-29T11:17:57;93536.75;;;29.14;49.62
51829;BME280;37881;48.024;8.774;2023-07-29T11:20:26;93529.28;;;27.96;51.67
51829;BME280;37881;48.024;8.774;2023-07-29T11:22:54;93537.59;;;27.88;51.07
51829;BME280;37881;48.024;8.774;2023-07-29T11:25:22;93544.38;;;28.12;50.92
51829;BME280;37881;48.024;8.774;2023-07-29T11:27:52;93560.69;;;29.13;47.03
51829;BME280;37881;48.024;8.774;2023-07-29T11:30:19;93570.81;;;29.77;45.12
51829;BME280;37881;48.024;8.774;2023-07-29T11:32:46;93548.34;;;28.76;45.77
51829;BME280;37881;48.024;8.774;2023-07-29T11:35:15;93539.69;;;29.08;45.75
51829;BME280;37881;48.024;8.774;2023-07-29T11:37:51;93538.28;;;29.15;47.92
51829;BME280;37881;48.024;8.774;2023-07-29T11:40:20;93543.13;;;29.27;47.41
51829;BME280;37881;48.024;8.774;2023-07-29T11:42:49;93548.56;;;29.25;48.29
51829;BME280;37881;48.024;8.774;2023-07-29T11:45:21;93542.72;;;27.90;49.45
51829;BME280;37881;48.024;8.774;2023-07-29T11:47:51;93532.25;;;28.57;49.09
51829;BME280;37881;48.024;8.774;2023-07-29T11:50:18;93524.47;;;28.50;47.41
51829;BME280;37881;48.024;8.774;2023-07-29T11:52:46;93530.84;;;28.51;49.20
51829;BME280;37881;48.024;8.774;2023-07-29T11:55:14;93519.09;;;28.73;47.55
51829;BME280;37881;48.024;8.774;2023-07-29T11:57:43;93521.00;;;27.85;48.77
51829;BME280;37881;48.024;8.774;2023-07-29T12:00:10;93516.03;;;28.98;47.47
51829;BME280;37881;48.024;8.774;2023-07-29T12:02:41;93520.53;;;29.83;46.99
51829;BME280;37881;48.024;8.774;2023-07-29T12:05:12;93514.16;;;29.48;46.79
51829;BME280;37881;48.024;8.774;2023-07-29T12:07:41;93515.72;;;28.88;49.41
51829;BME280;37881;48.024;8.774;2023-07-29T12:10:09;93521.75;;;29.05;49.37
51829;BME280;37881;48.024;8.774;2023-07-29T12:12:46;93529.53;;;28.65;48.95
51829;BME280;37881;48.024;8.774;2023-07-29T12:15:13;93538.19;;;28.27;49.50
51829;BME280;37881;48.024;8.774;2023-07-29T12:17:41;93531.13;;;27.75;51.60
51829;BME280;37881;48.024;8.774;2023-07-29T12:20:11;93530.97;;;28.72;50.19
51829;BME280;37881;48.024;8.774;2023-07-29T12:22:38;93511.19;;;28.18;50.33
51829;BME280;37881;48.024;8.774;2023-07-29T12:25:05;93541.72;;;27.55;50.92
51829;BME280;37881;48.024;8.774;2023-07-29T12:27:33;93540.06;;;28.51;50.26
51829;BME280;37881;48.024;8.774;2023-07-29T12:30:01;93552.00;;;27.85;50.16
51829;BME280;37881;48.024;8.774;2023-07-29T12:32:30;93546.41;;;27.66;51.72
51829;BME280;37881;48.024;8.774;2023-07-29T12:34:57;93553.47;;;27.92;51.95
51829;BME280;37881;48.024;8.774;2023-07-29T12:37:31;93555.97;;;28.08;51.29
51829;BME280;37881;48.024;8.774;2023-07-29T12:39:59;93557.34;;;27.88;51.18
51829;BME280;37881;48.024;8.774;2023-07-29T12:42:25;93548.91;;;27.37;53.18
51829;BME280;37881;48.024;8.774;2023-07-29T12:44:52;93558.03;;;27.43;53.63
51829;BME280;37881;48.024;8.774;2023-07-29T12:47:19;93555.97;;;27.63;53.82
51829;BME280;37881;48.024;8.774;2023-07-29T12:49:46;93554.47;;;28.07;52.08
51829;BME280;37881;48.024;8.774;2023-07-29T12:52:12;93555.09;;;27.68;53.17
51829;BME280;37881;48.024;8.774;2023-07-29T12:54:40;93554.47;;;28.07;52.36
51829;BME280;37881;48.024;8.774;2023-07-29T12:57:06;93553.66;;;27.29;52.53
51829;BME280;37881;48.024;8.774;2023-07-29T12:59:33;93553.47;;;26.64;56.09